PWSweather.com
Personal Weather Stations
Station Observations
CW9610
Rural Jefferson County, Mclouth, KS 66054

Rural Jefferson CountyMclouth, KS 66054

Lat: 39.1947, Lon: -95.238

Elevation: 1151

Station Type: Davis VP2

http://mclwx.info

Latest ConditionsUpdated 4:00:00 PM CDT Thursday, Sep 21, 2017
Currently Today's Max Today's Min Today's Average
Temperature 89.0°F31.7°C 89.0°F31.7°C 74.2°F23.4°C 81.6°F27.6°C
Dew Point 75.2°F24.0°C 75.2°F24.0°C 68.3°F20.2°C 72.4°F22.4°C
Winds 8.0 mph S12.9 kmh S 8.0 mph S12.9 kmh S - 3.1 mph 5.0 kmh
Wind Gusts 14.0 mph22.5 kmh 17.0 mph27.4 kmh - -
Humidity 64% 82% 64% 74%
Pressure 29.73 in1006.8 mb 29.82 in1009.8 mb 29.73 in1006.8 mb -
Hour Temp Dew Point Humidity Winds Wind Gusts Pressure Precip Precip Rate Daily Precip Total
04:00 PM 89.0°F31.7°C 75.2°F24.0°C 64% 8.0 mph S12.9 kmh S 14.0 mph22.5 kmh 29.73 in1006.8 mb 0.00 in0.0 mm 0.00 in0.0 mm 0.00 in0.0 mm
03:30 PM 88.6°F31.4°C 74.9°F23.8°C 64% 7.6 mph S12.2 kmh S 17.0 mph27.4 kmh 29.74 in1007.1 mb 0.00 in0.0 mm 0.00 in0.0 mm 0.00 in0.0 mm
03:00 PM 88.9°F31.6°C 75.1°F23.9°C 64% 6.3 mph S10.1 kmh S 15.0 mph24.1 kmh 29.75 in1007.5 mb 0.00 in0.0 mm 0.00 in0.0 mm 0.00 in0.0 mm
02:30 PM 88.8°F31.6°C 75.0°F23.9°C 64% 6.0 mph S9.7 kmh S 16.0 mph25.7 kmh 29.75 in1007.5 mb 0.00 in0.0 mm 0.00 in0.0 mm 0.00 in0.0 mm
02:00 PM 88.1°F31.2°C 74.8°F23.8°C 65% 6.2 mph S10.0 kmh S 14.0 mph22.5 kmh 29.76 in1007.8 mb 0.00 in0.0 mm 0.00 in0.0 mm 0.00 in0.0 mm
01:30 PM 87.4°F30.8°C 74.2°F23.4°C 65% 6.2 mph S10.0 kmh S 15.0 mph24.1 kmh 29.77 in1008.1 mb 0.00 in0.0 mm 0.00 in0.0 mm 0.00 in0.0 mm
01:00 PM 86.5°F30.3°C 73.8°F23.2°C 66% 6.4 mph S10.3 kmh S 13.0 mph20.9 kmh 29.79 in1008.8 mb 0.00 in0.0 mm 0.00 in0.0 mm 0.00 in0.0 mm
12:30 PM 86.1°F30.1°C 74.3°F23.5°C 68% 5.1 mph S8.2 kmh S 14.0 mph22.5 kmh 29.80 in1009.1 mb 0.00 in0.0 mm 0.00 in0.0 mm 0.00 in0.0 mm
12:00 PM 84.6°F29.2°C 73.7°F23.2°C 70% 5.9 mph S9.5 kmh S 14.0 mph22.5 kmh 29.80 in1009.1 mb 0.00 in0.0 mm 0.00 in0.0 mm 0.00 in0.0 mm
11:30 AM 83.6°F28.7°C 73.2°F22.9°C 71% 5.1 mph S8.2 kmh S 12.0 mph19.3 kmh 29.81 in1009.5 mb 0.00 in0.0 mm 0.00 in0.0 mm 0.00 in0.0 mm
11:00 AM 82.5°F28.1°C 72.6°F22.6°C 72% 5.0 mph S8.0 kmh S 11.0 mph17.7 kmh 29.81 in1009.5 mb 0.00 in0.0 mm 0.00 in0.0 mm 0.00 in0.0 mm
10:30 AM 81.5°F27.5°C 72.0°F22.2°C 73% 4.7 mph S7.6 kmh S 12.0 mph19.3 kmh 29.81 in1009.5 mb 0.00 in0.0 mm 0.00 in0.0 mm 0.00 in0.0 mm
10:15 AM 80.9°F27.2°C 72.2°F22.3°C 75% 5.0 mph S8.0 kmh S 11.0 mph17.7 kmh 29.82 in1009.8 mb 0.00 in0.0 mm 0.00 in0.0 mm 0.00 in0.0 mm
10:00 AM 80.1°F26.7°C 71.8°F22.1°C 76% 4.3 mph S6.9 kmh S 11.0 mph17.7 kmh 29.82 in1009.8 mb 0.00 in0.0 mm 0.00 in0.0 mm 0.00 in0.0 mm
09:30 AM 78.6°F25.9°C 71.2°F21.8°C 78% 4.0 mph S6.4 kmh S 9.0 mph14.5 kmh 29.82 in1009.8 mb 0.00 in0.0 mm 0.00 in0.0 mm 0.00 in0.0 mm
09:00 AM 77.1°F25.1°C 70.1°F21.2°C 79% 3.0 mph S4.8 kmh S 7.0 mph11.3 kmh 29.81 in1009.5 mb 0.00 in0.0 mm 0.00 in0.0 mm 0.00 in0.0 mm
08:30 AM 75.9°F24.4°C 69.6°F20.9°C 81% 1.8 mph S2.9 kmh S 6.0 mph9.7 kmh 29.81 in1009.5 mb 0.00 in0.0 mm 0.00 in0.0 mm 0.00 in0.0 mm
08:00 AM 74.2°F23.4°C 68.3°F20.2°C 82% 1.4 mph S2.3 kmh S 5.0 mph8.0 kmh 29.81 in1009.5 mb 0.00 in0.0 mm 0.00 in0.0 mm 0.00 in0.0 mm
07:30 AM 79.6°F26.4°C 71.8°F22.1°C 77% 0.8 mph 1.3 kmh 4.0 mph6.4 kmh 29.80 in1009.1 mb 0.00 in0.0 mm 0.00 in0.0 mm 0.00 in0.0 mm
07:00 AM 79.6°F26.4°C 71.8°F22.1°C 77% 0.8 mph 1.3 kmh 4.0 mph6.4 kmh 29.79 in1008.8 mb 0.00 in0.0 mm 0.00 in0.0 mm 0.00 in0.0 mm
06:30 AM 79.6°F26.4°C 71.8°F22.1°C 77% 0.8 mph 1.3 kmh 4.0 mph6.4 kmh 29.79 in1008.8 mb 0.00 in0.0 mm 0.00 in0.0 mm 0.00 in0.0 mm
06:00 AM 79.6°F26.4°C 71.8°F22.1°C 77% 0.8 mph 1.3 kmh 4.0 mph6.4 kmh 29.78 in1008.5 mb 0.00 in0.0 mm 0.00 in0.0 mm 0.00 in0.0 mm
05:30 AM 79.6°F26.4°C 71.8°F22.1°C 77% 0.8 mph 1.3 kmh 4.0 mph6.4 kmh 29.78 in1008.5 mb 0.00 in0.0 mm 0.00 in0.0 mm 0.00 in0.0 mm
05:00 AM 79.6°F26.4°C 71.8°F22.1°C 77% 0.8 mph 1.3 kmh 4.0 mph6.4 kmh 29.77 in1008.1 mb 0.00 in0.0 mm 0.00 in0.0 mm 0.00 in0.0 mm
04:30 AM 79.6°F26.4°C 71.8°F22.1°C 77% 0.8 mph 1.3 kmh 4.0 mph6.4 kmh 29.77 in1008.1 mb 0.00 in0.0 mm 0.00 in0.0 mm 0.00 in0.0 mm
04:00 AM 79.6°F26.4°C 71.8°F22.1°C 77% 0.8 mph 1.3 kmh 4.0 mph6.4 kmh 29.77 in1008.1 mb 0.00 in0.0 mm 0.00 in0.0 mm 0.00 in0.0 mm
03:30 AM 79.6°F26.4°C 71.8°F22.1°C 77% 0.8 mph 1.3 kmh 4.0 mph6.4 kmh 29.78 in1008.5 mb 0.00 in0.0 mm 0.00 in0.0 mm 0.00 in0.0 mm
03:00 AM 79.6°F26.4°C 71.8°F22.1°C 77% 0.8 mph 1.3 kmh 4.0 mph6.4 kmh 29.78 in1008.5 mb 0.00 in0.0 mm 0.00 in0.0 mm 0.00 in0.0 mm
02:30 AM 79.6°F26.4°C 71.8°F22.1°C 77% 0.8 mph 1.3 kmh 4.0 mph6.4 kmh 29.79 in1008.8 mb 0.00 in0.0 mm 0.00 in0.0 mm 0.00 in0.0 mm
02:00 AM 79.6°F26.4°C 71.8°F22.1°C 77% 0.8 mph 1.3 kmh 4.0 mph6.4 kmh 29.79 in1008.8 mb 0.00 in0.0 mm 0.00 in0.0 mm 0.00 in0.0 mm
01:30 AM 79.6°F26.4°C 71.8°F22.1°C 77% 0.8 mph 1.3 kmh 4.0 mph6.4 kmh 29.78 in1008.5 mb 0.00 in0.0 mm 0.00 in0.0 mm 0.00 in0.0 mm
01:00 AM 79.6°F26.4°C 71.8°F22.1°C 77% 0.8 mph 1.3 kmh 4.0 mph6.4 kmh 29.78 in1008.5 mb 0.00 in0.0 mm 0.00 in0.0 mm 0.00 in0.0 mm
12:30 AM 79.6°F26.4°C 71.8°F22.1°C 77% 0.8 mph 1.3 kmh 4.0 mph6.4 kmh 29.77 in1008.1 mb 0.00 in0.0 mm 0.00 in0.0 mm 0.00 in0.0 mm
12:00 AM 79.6°F26.4°C 71.8°F22.1°C 77% 0.8 mph 1.3 kmh 4.0 mph6.4 kmh 29.77 in1008.1 mb 0.00 in0.0 mm 0.00 in0.0 mm 0.00 in0.0 mm